createdAt,value
2019-04-26T00:02:46.340Z,58.97
2019-04-26T00:05:35.362Z,77.80
2019-04-26T00:08:15.827Z,63.40
2019-04-26T00:11:16.638Z,69.17
2019-04-26T00:14:20.999Z,59.20
2019-04-26T00:17:09.210Z,54.97
2019-04-26T00:19:51.686Z,56.30
2019-04-26T00:22:37.975Z,60.77
2019-04-26T00:25:18.690Z,54.37
2019-04-26T00:28:08.030Z,58.27
2019-04-26T00:30:49.007Z,54.80
2019-04-26T00:33:32.640Z,57.63
2019-04-26T00:36:14.935Z,53.43
2019-04-26T00:38:56.858Z,54.17
2019-04-26T00:41:43.325Z,62.93
2019-04-26T00:44:29.464Z,53.90
2019-04-26T00:47:14.116Z,55.00
2019-04-26T00:49:58.586Z,61.63
2019-04-26T00:52:38.724Z,91.57
2019-04-26T00:55:24.340Z,59.60
2019-04-26T00:58:08.356Z,60.07
2019-04-26T01:00:47.714Z,71.15
2019-04-26T01:03:31.115Z,60.90
2019-04-26T01:06:14.627Z,60.07
2019-04-26T01:08:56.451Z,66.23
2019-04-26T01:11:39.374Z,60.03
2019-04-26T01:14:21.982Z,55.90
2019-04-26T01:17:02.852Z,55.63
2019-04-26T01:19:47.699Z,52.43
2019-04-26T01:22:31.760Z,49.80
2019-04-26T01:25:12.166Z,56.17
2019-04-26T01:27:57.133Z,66.15
2019-04-26T01:30:41.296Z,58.80
2019-04-26T01:33:24.087Z,58.80
2019-04-26T01:36:13.277Z,50.70
2019-04-26T01:38:51.370Z,50.03
2019-04-26T01:41:38.067Z,49.73
2019-04-26T01:44:31.473Z,46.00
2019-04-26T01:47:13.404Z,46.13
2019-04-26T01:49:56.117Z,57.07
2019-04-26T01:52:37.777Z,57.43
2019-04-26T01:55:19.340Z,52.23
2019-04-26T01:57:59.966Z,46.47
2019-04-26T02:01:01.395Z,40.93
2019-04-26T02:03:41.632Z,44.07
2019-04-26T02:06:29.168Z,42.03
2019-04-26T02:09:07.585Z,41.20
2019-04-26T02:11:48.228Z,43.80
2019-04-26T02:14:28.955Z,42.93
2019-04-26T02:17:08.829Z,41.80
2019-04-26T02:19:54.528Z,41.83
2019-04-26T02:22:57.788Z,50.63
2019-04-26T02:25:41.717Z,45.17
2019-04-26T02:28:25.528Z,42.43
2019-04-26T02:31:07.999Z,46.57
2019-04-26T02:33:46.982Z,45.63
2019-04-26T02:36:47.897Z,40.50
2019-04-26T02:39:21.914Z,40.93
2019-04-26T02:42:08.266Z,37.93
2019-04-26T02:44:54.815Z,41.57
2019-04-26T02:47:54.318Z,41.07
2019-04-26T02:50:41.978Z,45.70
2019-04-26T02:53:43.289Z,42.03
2019-04-26T02:56:34.110Z,40.07
2019-04-26T02:59:45.268Z,35.33
2019-04-26T03:02:36.171Z,32.67
2019-04-26T03:05:14.810Z,33.00
2019-04-26T03:08:06.651Z,34.60
2019-04-26T03:10:58.152Z,36.17
2019-04-26T03:14:08.230Z,34.97
2019-04-26T03:17:04.711Z,42.85
2019-04-26T03:19:51.080Z,39.30
2019-04-26T03:23:06.042Z,38.63
2019-04-26T03:25:57.069Z,41.33
2019-04-26T03:29:01.063Z,57.20
2019-04-26T03:32:02.959Z,64.47
2019-04-26T03:34:58.931Z,49.07
2019-04-26T03:38:09.622Z,44.43
2019-04-26T03:41:05.451Z,43.00
2019-04-26T03:44:23.378Z,47.55
2019-04-26T03:47:06.834Z,39.10
2019-04-26T03:50:09.319Z,41.90
2019-04-26T03:53:18.199Z,40.73
2019-04-26T03:56:39.838Z,44.07
2019-04-26T03:59:57.423Z,49.40
2019-04-26T04:02:53.239Z,55.50
2019-04-26T04:05:45.593Z,57.20
2019-04-26T04:08:29.283Z,42.33
2019-04-26T04:11:12.633Z,43.50
2019-04-26T04:14:12.401Z,46.87
2019-04-26T04:17:33.694Z,50.30
2019-04-26T04:21:03.668Z,81.67
2019-04-26T04:24:04.670Z,54.37
2019-04-26T04:27:10.499Z,56.07
2019-04-26T04:30:19.729Z,73.07
2019-04-26T04:33:49.475Z,51.67
2019-04-26T04:36:31.138Z,42.17
2019-04-26T04:39:29.949Z,40.03
2019-04-26T04:42:32.824Z,43.53
2019-04-26T04:45:50.134Z,42.03
2019-04-26T04:48:52.817Z,57.03
2019-04-26T04:51:53.583Z,54.03
2019-04-26T04:54:44.720Z,87.00
2019-04-26T04:57:56.945Z,61.18
2019-04-26T05:01:37.633Z,55.70
2019-04-26T05:04:29.173Z,51.73
2019-04-26T05:07:51.494Z,49.13
2019-04-26T05:10:57.450Z,46.40
2019-04-26T05:14:06.296Z,47.23
2019-04-26T05:17:19.160Z,97.50
2019-04-26T05:20:42.169Z,63.13
2019-04-26T05:24:00.963Z,68.02
2019-04-26T05:27:40.774Z,52.50
2019-04-26T05:31:11.623Z,46.30
2019-04-26T05:34:15.429Z,49.53
2019-04-26T05:37:33.160Z,41.70
2019-04-26T05:40:48.627Z,40.57
2019-04-26T05:43:45.000Z,37.83
2019-04-26T05:47:09.250Z,41.07
2019-04-26T05:50:31.309Z,39.30
2019-04-26T05:54:15.759Z,52.35
2019-04-26T06:01:42.998Z,32.00
2019-04-26T06:05:27.052Z,38.73
2019-04-26T06:08:49.146Z,88.50
2019-04-26T06:11:39.626Z,47.33
2019-04-26T06:15:00.899Z,39.20
2019-04-26T06:21:46.244Z,55.85
2019-04-26T06:25:06.626Z,164.00
2019-04-26T06:28:08.309Z,60.10
2019-04-26T06:31:13.907Z,37.40
2019-04-26T06:34:24.765Z,32.53
2019-04-26T06:37:35.722Z,40.87
2019-04-26T06:40:46.079Z,34.73
2019-04-26T06:43:42.660Z,32.67
2019-04-26T06:46:49.428Z,30.83
2019-04-26T06:50:30.282Z,28.03
2019-04-26T06:53:29.696Z,29.17
2019-04-26T06:56:37.365Z,31.30
2019-04-26T06:59:43.075Z,30.10
2019-04-26T07:02:57.412Z,28.53
2019-04-26T07:05:54.211Z,31.70
2019-04-26T07:08:59.350Z,29.97
2019-04-26T07:12:28.943Z,31.10
2019-04-26T07:15:43.667Z,31.00
2019-04-26T07:22:35.128Z,28.87
2019-04-26T07:25:50.943Z,28.90
2019-04-26T07:29:11.268Z,31.03
2019-04-26T07:32:03.228Z,32.70
2019-04-26T07:35:32.638Z,35.50
2019-04-26T07:39:13.222Z,32.37
2019-04-26T07:42:24.484Z,29.70
2019-04-26T07:45:51.123Z,35.00
2019-04-26T07:49:05.985Z,34.37
2019-04-26T07:52:27.121Z,32.20
2019-04-26T07:55:33.738Z,31.70
2019-04-26T07:58:47.092Z,34.33
2019-04-26T08:01:59.289Z,33.03
2019-04-26T08:04:46.935Z,31.93
2019-04-26T08:07:40.035Z,32.47
2019-04-26T08:10:23.977Z,36.60
2019-04-26T08:13:13.087Z,34.40
2019-04-26T08:16:21.989Z,29.73
2019-04-26T08:19:06.996Z,32.80
2019-04-26T08:21:51.669Z,33.60
2019-04-26T08:24:35.095Z,34.23
2019-04-26T08:27:24.092Z,34.57
2019-04-26T08:30:10.109Z,33.63
2019-04-26T08:32:52.925Z,34.83
2019-04-26T08:35:34.694Z,44.87
2019-04-26T08:38:22.754Z,40.08
2019-04-26T08:41:04.988Z,41.67
2019-04-26T08:44:11.244Z,36.90
2019-04-26T08:47:13.707Z,41.67
2019-04-26T08:50:00.760Z,34.50
2019-04-26T08:52:43.057Z,32.30
2019-04-26T08:55:27.705Z,35.50
2019-04-26T08:58:08.738Z,34.63
2019-04-26T09:00:59.792Z,33.30
2019-04-26T09:03:44.971Z,39.80
2019-04-26T09:06:50.877Z,37.20
2019-04-26T09:09:32.511Z,34.10
2019-04-26T09:12:22.915Z,33.70
2019-04-26T09:15:00.301Z,32.03
2019-04-26T09:17:47.294Z,31.60
2019-04-26T09:20:29.883Z,32.23
2019-04-26T09:23:39.932Z,35.33
2019-04-26T09:26:20.656Z,33.40
2019-04-26T09:29:09.765Z,33.53
2019-04-26T09:31:59.832Z,36.57
2019-04-26T09:34:42.810Z,37.47
2019-04-26T09:37:22.123Z,37.67
2019-04-26T09:40:21.044Z,39.20
2019-04-26T09:43:15.006Z,35.87
2019-04-26T09:46:20.852Z,34.57
2019-04-26T09:49:17.272Z,34.20
2019-04-26T09:52:01.065Z,35.83
2019-04-26T09:54:40.287Z,37.63
2019-04-26T09:57:22.791Z,38.43
2019-04-26T10:00:02.018Z,42.58
2019-04-26T10:02:45.018Z,36.10
2019-04-26T10:05:27.338Z,36.47
2019-04-26T10:08:08.221Z,37.20
2019-04-26T10:10:51.859Z,34.00
2019-04-26T10:13:49.594Z,38.17
2019-04-26T10:16:59.182Z,36.90
2019-04-26T10:19:51.450Z,40.52
2019-04-26T10:22:35.918Z,38.17
2019-04-26T10:25:41.685Z,37.80
2019-04-26T10:28:24.745Z,40.27
2019-04-26T10:31:06.423Z,38.47
2019-04-26T10:34:02.731Z,38.50
2019-04-26T10:36:57.079Z,38.90
2019-04-26T10:39:42.719Z,40.03
2019-04-26T10:42:29.482Z,36.33
2019-04-26T10:45:16.368Z,37.13
2019-04-26T10:47:59.530Z,41.17
2019-04-26T10:50:42.361Z,43.60
2019-04-26T10:53:43.851Z,43.23
2019-04-26T10:56:49.751Z,40.17
2019-04-26T10:59:48.681Z,34.17
2019-04-26T11:02:33.272Z,42.97
2019-04-26T11:05:35.462Z,40.30
2019-04-26T11:08:19.381Z,37.97
2019-04-26T11:11:03.877Z,40.20
2019-04-26T11:13:46.305Z,40.87
2019-04-26T11:16:27.606Z,42.60
2019-04-26T11:19:13.990Z,42.63
2019-04-26T11:22:02.058Z,40.63
2019-04-26T11:24:46.347Z,46.00
2019-04-26T11:27:31.295Z,42.13
2019-04-26T11:30:20.869Z,40.90
2019-04-26T11:32:59.650Z,44.97
2019-04-26T11:35:44.898Z,43.57
2019-04-26T11:38:31.274Z,39.33
2019-04-26T11:41:15.948Z,37.07
2019-04-26T11:44:01.074Z,37.23
2019-04-26T11:46:44.825Z,36.93
2019-04-26T11:49:42.994Z,35.47
2019-04-26T11:52:45.005Z,34.90
2019-04-26T11:55:31.424Z,42.67
2019-04-26T11:58:30.592Z,56.63
2019-04-26T12:01:27.091Z,54.83
2019-04-26T12:04:36.972Z,61.30
2019-04-26T12:07:46.916Z,140.88
2019-04-26T12:10:31.772Z,83.90
2019-04-26T12:13:21.424Z,54.00
2019-04-26T12:16:09.772Z,46.33
2019-04-26T12:18:58.609Z,42.30
2019-04-26T12:21:44.355Z,39.20
2019-04-26T12:24:29.562Z,37.53
2019-04-26T12:27:13.572Z,37.27
2019-04-26T12:29:57.470Z,35.33
2019-04-26T12:33:05.142Z,36.80
2019-04-26T12:35:46.561Z,34.97
2019-04-26T12:38:33.428Z,35.57
2019-04-26T12:41:25.235Z,35.83
2019-04-26T12:44:10.828Z,37.07
2019-04-26T12:47:15.417Z,34.97
2019-04-26T12:50:02.499Z,37.47
2019-04-26T12:52:44.425Z,35.03
2019-04-26T12:55:53.667Z,36.07
2019-04-26T12:58:34.575Z,33.03
2019-04-26T13:01:17.304Z,34.53
2019-04-26T13:04:18.169Z,33.50
2019-04-26T13:07:23.429Z,34.17
2019-04-26T13:10:27.555Z,36.98
2019-04-26T13:13:30.442Z,33.67
2019-04-26T13:16:28.447Z,33.70
2019-04-26T13:19:16.043Z,31.57
2019-04-26T13:22:01.689Z,33.27
2019-04-26T13:24:50.680Z,31.67
2019-04-26T13:27:45.578Z,37.33
2019-04-26T13:30:32.946Z,33.73
2019-04-26T13:33:18.242Z,33.10
2019-04-26T13:36:07.464Z,37.93
2019-04-26T13:39:00.263Z,34.90
2019-04-26T13:42:04.457Z,35.93
2019-04-26T13:44:53.853Z,36.53
2019-04-26T13:48:06.351Z,38.90
2019-04-26T13:51:07.657Z,36.70
2019-04-26T13:54:01.481Z,40.60
2019-04-26T13:56:53.087Z,38.80
2019-04-26T13:59:45.313Z,40.47
2019-04-26T14:02:34.032Z,42.20
2019-04-26T14:05:38.386Z,40.47
2019-04-26T14:08:21.142Z,40.70
2019-04-26T14:11:04.148Z,41.83
2019-04-26T14:13:59.964Z,42.07
2019-04-26T14:16:55.829Z,42.47
2019-04-26T14:19:38.346Z,41.90
2019-04-26T14:22:33.037Z,40.67
2019-04-26T14:25:22.779Z,72.63
2019-04-26T14:28:10.382Z,187.87
2019-04-26T14:30:57.129Z,189.23
2019-04-26T14:33:45.050Z,110.48
2019-04-26T14:36:30.493Z,56.57
2019-04-26T14:39:19.681Z,41.33
2019-04-26T14:42:06.374Z,37.00
2019-04-26T14:44:51.333Z,34.63
2019-04-26T14:47:46.442Z,124.93
2019-04-26T14:50:16.662Z,70.17
2019-04-26T14:53:02.311Z,46.30
2019-04-26T14:55:51.345Z,40.78
2019-04-26T14:58:33.730Z,37.00
2019-04-26T15:01:32.293Z,34.57
2019-04-26T15:04:36.693Z,32.87
2019-04-26T15:07:22.175Z,35.27
2019-04-26T15:10:13.853Z,185.33
2019-04-26T15:13:11.445Z,143.33
2019-04-26T15:15:46.175Z,77.03
2019-04-26T15:18:25.441Z,47.07
2019-04-26T15:21:09.623Z,43.00
2019-04-26T15:24:00.382Z,36.47
2019-04-26T15:27:07.211Z,35.03
2019-04-26T15:29:52.480Z,35.27
2019-04-26T15:32:38.258Z,35.20
2019-04-26T15:35:34.219Z,35.53
2019-04-26T15:38:17.952Z,42.33
2019-04-26T15:41:16.968Z,37.17
2019-04-26T15:44:24.826Z,36.20
2019-04-26T15:47:14.565Z,41.88
2019-04-26T15:50:17.089Z,37.30
2019-04-26T15:53:06.594Z,36.67
2019-04-26T15:55:52.392Z,36.00
2019-04-26T15:58:45.881Z,34.80
2019-04-26T16:01:24.748Z,35.87
2019-04-26T16:04:07.686Z,36.97
2019-04-26T16:06:57.004Z,36.07
2019-04-26T16:09:37.763Z,36.87
2019-04-26T16:12:27.174Z,35.57
2019-04-26T16:15:14.722Z,36.90
2019-04-26T16:17:54.544Z,35.77
2019-04-26T16:20:44.365Z,37.77
2019-04-26T16:23:40.859Z,39.33
2019-04-26T16:26:20.338Z,40.07
2019-04-26T16:29:24.554Z,40.90
2019-04-26T16:32:28.749Z,38.20
2019-04-26T16:35:14.077Z,40.77
2019-04-26T16:38:06.597Z,44.00
2019-04-26T16:40:52.108Z,44.43
2019-04-26T16:43:37.705Z,49.10
2019-04-26T16:46:24.236Z,48.87
2019-04-26T16:49:11.584Z,49.53
2019-04-26T16:52:02.172Z,49.33
2019-04-26T16:54:43.789Z,50.10
2019-04-26T16:57:29.226Z,49.27
2019-04-26T17:00:11.073Z,49.17
2019-04-26T17:02:53.360Z,52.95
2019-04-26T17:05:47.663Z,46.83
2019-04-26T17:08:20.812Z,40.57
2019-04-26T17:11:05.440Z,37.93
2019-04-26T17:13:51.275Z,35.37
2019-04-26T17:16:29.715Z,32.90
2019-04-26T17:19:11.889Z,34.65
2019-04-26T17:22:05.191Z,29.90
2019-04-26T17:25:12.639Z,30.60
2019-04-26T17:27:58.707Z,34.47
2019-04-26T17:30:45.353Z,30.87
2019-04-26T17:33:30.338Z,30.17
2019-04-26T17:36:15.909Z,30.60
2019-04-26T17:38:57.265Z,29.27
2019-04-26T17:41:43.262Z,29.33
2019-04-26T17:44:28.292Z,27.93
2019-04-26T17:47:10.881Z,32.60
2019-04-26T17:49:57.478Z,31.13
2019-04-26T17:52:41.210Z,29.60
2019-04-26T17:55:20.877Z,26.93
2019-04-26T17:58:11.914Z,27.77
2019-04-26T18:00:56.547Z,28.57
2019-04-26T18:03:38.661Z,29.93
2019-04-26T18:06:29.417Z,30.90
2019-04-26T18:09:13.252Z,25.20
2019-04-26T18:12:00.036Z,32.80
2019-04-26T18:14:40.746Z,30.67
2019-04-26T18:17:44.622Z,28.53
2019-04-26T18:20:44.559Z,33.65
2019-04-26T18:23:30.286Z,28.63
2019-04-26T18:26:13.381Z,27.60
2019-04-26T18:28:56.479Z,29.90
2019-04-26T18:31:40.599Z,29.33
2019-04-26T18:34:25.496Z,31.13
2019-04-26T18:37:07.299Z,30.57
2019-04-26T18:39:53.449Z,28.97
2019-04-26T18:42:47.246Z,31.33
2019-04-26T18:45:30.167Z,35.15
2019-04-26T18:48:09.607Z,33.07
2019-04-26T18:50:52.239Z,30.27
2019-04-26T18:54:09.124Z,30.70
2019-04-26T18:56:53.343Z,29.70
2019-04-26T18:59:34.144Z,30.50
2019-04-26T19:02:18.619Z,30.53
2019-04-26T19:04:55.662Z,31.70
2019-04-26T19:07:37.834Z,31.33
2019-04-26T19:10:21.612Z,34.98
2019-04-26T19:13:14.123Z,33.90
2019-04-26T19:16:05.460Z,32.40
2019-04-26T19:18:59.982Z,33.53
2019-04-26T19:22:01.552Z,32.83
2019-04-26T19:24:45.339Z,31.23
2019-04-26T19:27:28.250Z,31.80
2019-04-26T19:30:10.737Z,35.60
2019-04-26T19:32:53.891Z,31.33
2019-04-26T19:35:39.374Z,30.87
2019-04-26T19:38:21.292Z,35.67
2019-04-26T19:41:02.687Z,32.33
2019-04-26T19:43:46.113Z,30.07
2019-04-26T19:46:35.872Z,30.13
2019-04-26T19:49:39.444Z,27.87
2019-04-26T19:52:39.641Z,29.20
2019-04-26T19:55:47.293Z,29.60
2019-04-26T19:58:32.071Z,28.73
2019-04-26T20:01:16.491Z,29.57
2019-04-26T20:03:59.918Z,33.85
2019-04-26T20:06:43.078Z,30.97
2019-04-26T20:09:26.568Z,29.97
2019-04-26T20:12:15.642Z,27.33
2019-04-26T20:15:02.178Z,30.00
2019-04-26T20:17:45.671Z,32.57
2019-04-26T20:20:34.521Z,29.67
2019-04-26T20:23:13.573Z,34.18
2019-04-26T20:26:00.945Z,32.17
2019-04-26T20:28:42.347Z,30.93
2019-04-26T20:31:49.070Z,38.17
2019-04-26T20:34:32.364Z,32.70
2019-04-26T20:37:16.157Z,33.77
2019-04-26T20:40:17.621Z,32.70
2019-04-26T20:42:42.911Z,29.17
2019-04-26T20:45:38.386Z,31.63
2019-04-26T20:48:10.320Z,30.57
2019-04-26T20:50:55.434Z,33.13
2019-04-26T20:53:41.023Z,34.20
2019-04-26T20:56:22.491Z,33.80
2019-04-26T20:59:02.912Z,33.43
2019-04-26T21:01:46.628Z,30.83
2019-04-26T21:04:36.844Z,35.37
2019-04-26T21:07:11.432Z,32.30
2019-04-26T21:09:53.716Z,34.10
2019-04-26T21:12:33.629Z,32.73
2019-04-26T21:15:20.093Z,33.47
2019-04-26T21:18:01.325Z,32.77
2019-04-26T21:20:44.942Z,33.07
2019-04-26T21:23:25.163Z,35.88
2019-04-26T21:26:28.135Z,35.07
2019-04-26T21:29:29.073Z,34.57
2019-04-26T21:32:33.227Z,34.30
2019-04-26T21:35:16.504Z,33.67
2019-04-26T21:38:09.454Z,34.00
2019-04-26T21:41:11.671Z,36.30
2019-04-26T21:43:55.427Z,34.83
2019-04-26T21:46:35.490Z,35.80
2019-04-26T21:49:20.322Z,35.90
2019-04-26T21:51:58.983Z,44.30
2019-04-26T21:54:40.757Z,38.30
2019-04-26T21:57:31.758Z,33.20
2019-04-26T22:00:30.843Z,34.87
2019-04-26T22:03:16.000Z,35.70
2019-04-26T22:05:58.604Z,33.87
2019-04-26T22:08:46.848Z,33.50
2019-04-26T22:11:28.531Z,30.83
2019-04-26T22:14:21.424Z,32.23
2019-04-26T22:17:25.419Z,33.07
2019-04-26T22:20:24.630Z,32.67
2019-04-26T22:23:28.179Z,30.43
2019-04-26T22:26:16.502Z,28.17
2019-04-26T22:29:01.277Z,30.77
2019-04-26T22:31:41.629Z,29.03
2019-04-26T22:34:24.460Z,28.77
2019-04-26T22:37:11.169Z,27.93
2019-04-26T22:39:55.954Z,29.13
2019-04-26T22:42:42.138Z,26.03
2019-04-26T22:45:50.599Z,30.15
2019-04-26T22:48:37.592Z,26.07
2019-04-26T22:51:18.142Z,24.57
2019-04-26T22:54:02.590Z,25.60
2019-04-26T22:56:49.074Z,23.90
2019-04-26T22:59:38.160Z,25.00
2019-04-26T23:02:23.611Z,27.20
2019-04-26T23:05:05.846Z,32.70
2019-04-26T23:07:49.528Z,26.30
2019-04-26T23:10:35.936Z,28.80
2019-04-26T23:13:41.318Z,37.98
2019-04-26T23:17:04.097Z,36.67
2019-04-26T23:19:54.210Z,36.57
2019-04-26T23:22:35.347Z,35.77
2019-04-26T23:25:21.647Z,41.23
2019-04-26T23:28:04.579Z,39.83
2019-04-26T23:30:46.364Z,41.50
2019-04-26T23:33:29.345Z,47.55
2019-04-26T23:36:13.622Z,39.73
2019-04-26T23:38:59.782Z,39.40
2019-04-26T23:41:45.308Z,48.38
2019-04-26T23:44:30.127Z,37.80
2019-04-26T23:47:20.525Z,43.93
2019-04-26T23:49:57.184Z,40.00
2019-04-26T23:52:40.521Z,41.97
2019-04-26T23:55:24.756Z,42.27
2019-04-26T23:58:10.798Z,44.43
